Terminal Aerodrome Forecast
Issued by NWS Bismarck, ND

Home | Current Version | Previous Version | Text Only | Print | Product List | Glossary On
Versions: 1 2 3 4 5 6 7 8 9 10 11 12 13 14 15 16 17 18 19 20 21 22 23 24 25 26 27 28 29 30 31
087
FTUS43 KBIS 051613 AAD
TAFBIS
TAF AMD
KBIS 051613Z 0516/0612 29008KT 1/2SM SN OVC008
     FM051900 29015G25KT 3SM BLSN VCSH OVC015
     FM060600 31017G26KT 4SM BLSN OVC015=

USA.gov is the U.S. government's official web portal to all federal, state and local government web resources and services.